Aviation Digital Data Service (ADDS)

Output produced by METARs form (1318 UTC 28 July 2015)
found at http://www.aviationweather.gov/adds/metars/
 
SEGU 281300Z 22008KT 9999 BKN026 BKN100 24/20 Q1011 NOSIG RMK A2987
SEGU 280935Z 2812/2912 21006KT 9999 SCT020 BKN090 
     FM281800 18006KT 9999 SCT026 SCT100 
     FM290000 22012KT 9999 FEW020 SCT090 
     FM290600 22008KT 9999 BKN020 BKN080 TX30/2820Z TN23/2910Z
       
SEMT 281300Z 17009KT 140V210 9999 SCT026 25/23 Q1011
SEMT 280935Z 2812/2912 20006KT 9999 OVC020 
     FM281600 19008KT 9999 SCT030 
     FM290100 20008KT 9999 BKN030 TX30/2819Z TN24/2910Z